sensor_id;sensor_type;location;lat;lon;timestamp;P1;durP1;ratioP1;P2;durP2;ratioP2
26588;SDS011;14235;48.532;8.722;2023-08-21T00:02:20;10.63;;;8.10;;
26588;SDS011;14235;48.532;8.722;2023-08-21T00:04:46;8.75;;;7.60;;
26588;SDS011;14235;48.532;8.722;2023-08-21T00:07:12;8.13;;;7.18;;
26588;SDS011;14235;48.532;8.722;2023-08-21T00:09:37;8.50;;;7.80;;
26588;SDS011;14235;48.532;8.722;2023-08-21T00:12:03;8.05;;;7.28;;
26588;SDS011;14235;48.532;8.722;2023-08-21T00:14:29;10.35;;;7.47;;
26588;SDS011;14235;48.532;8.722;2023-08-21T00:16:55;7.97;;;7.28;;
26588;SDS011;14235;48.532;8.722;2023-08-21T00:19:21;7.60;;;6.90;;
26588;SDS011;14235;48.532;8.722;2023-08-21T00:21:46;11.13;;;7.60;;
26588;SDS011;14235;48.532;8.722;2023-08-21T00:24:12;8.43;;;7.72;;
26588;SDS011;14235;48.532;8.722;2023-08-21T00:26:38;8.27;;;7.45;;
26588;SDS011;14235;48.532;8.722;2023-08-21T00:29:04;8.00;;;7.22;;
26588;SDS011;14235;48.532;8.722;2023-08-21T00:31:30;9.43;;;7.15;;
26588;SDS011;14235;48.532;8.722;2023-08-21T00:33:55;11.15;;;7.30;;
26588;SDS011;14235;48.532;8.722;2023-08-21T00:36:21;8.20;;;7.35;;
26588;SDS011;14235;48.532;8.722;2023-08-21T00:38:47;7.25;;;6.55;;
26588;SDS011;14235;48.532;8.722;2023-08-21T00:41:13;8.85;;;6.90;;
26588;SDS011;14235;48.532;8.722;2023-08-21T00:43:39;7.78;;;7.07;;
26588;SDS011;14235;48.532;8.722;2023-08-21T00:46:04;8.75;;;7.45;;
26588;SDS011;14235;48.532;8.722;2023-08-21T00:48:31;8.02;;;7.15;;
26588;SDS011;14235;48.532;8.722;2023-08-21T00:50:57;9.93;;;7.43;;
26588;SDS011;14235;48.532;8.722;2023-08-21T00:53:23;7.82;;;7.10;;
26588;SDS011;14235;48.532;8.722;2023-08-21T00:55:49;9.23;;;7.72;;
26588;SDS011;14235;48.532;8.722;2023-08-21T00:58:15;8.02;;;7.35;;
26588;SDS011;14235;48.532;8.722;2023-08-21T01:00:42;7.50;;;6.85;;
26588;SDS011;14235;48.532;8.722;2023-08-21T01:03:11;9.30;;;7.30;;
26588;SDS011;14235;48.532;8.722;2023-08-21T01:05:36;10.80;;;7.60;;
26588;SDS011;14235;48.532;8.722;2023-08-21T01:08:03;8.25;;;7.45;;
26588;SDS011;14235;48.532;8.722;2023-08-21T01:10:37;9.18;;;7.43;;
26588;SDS011;14235;48.532;8.722;2023-08-21T01:16:14;9.88;;;7.90;;
26588;SDS011;14235;48.532;8.722;2023-08-21T01:18:41;7.93;;;7.13;;
26588;SDS011;14235;48.532;8.722;2023-08-21T01:21:08;8.75;;;7.13;;
26588;SDS011;14235;48.532;8.722;2023-08-21T01:23:34;7.82;;;7.13;;
26588;SDS011;14235;48.532;8.722;2023-08-21T01:26:01;8.23;;;7.38;;
26588;SDS011;14235;48.532;8.722;2023-08-21T01:28:27;7.80;;;7.07;;
26588;SDS011;14235;48.532;8.722;2023-08-21T01:33:33;8.40;;;7.75;;
26588;SDS011;14235;48.532;8.722;2023-08-21T01:36:02;7.93;;;7.22;;
26588;SDS011;14235;48.532;8.722;2023-08-21T01:38:31;11.65;;;7.30;;
26588;SDS011;14235;48.532;8.722;2023-08-21T01:41:00;7.50;;;6.57;;
26588;SDS011;14235;48.532;8.722;2023-08-21T01:43:27;8.10;;;7.40;;
26588;SDS011;14235;48.532;8.722;2023-08-21T01:45:52;8.48;;;7.28;;
26588;SDS011;14235;48.532;8.722;2023-08-21T01:48:18;7.32;;;6.68;;
26588;SDS011;14235;48.532;8.722;2023-08-21T01:50:44;8.15;;;6.80;;
26588;SDS011;14235;48.532;8.722;2023-08-21T01:53:10;7.97;;;7.28;;
26588;SDS011;14235;48.532;8.722;2023-08-21T01:55:35;9.32;;;7.03;;
26588;SDS011;14235;48.532;8.722;2023-08-21T01:58:01;8.30;;;7.15;;
26588;SDS011;14235;48.532;8.722;2023-08-21T02:00:27;8.05;;;7.40;;
26588;SDS011;14235;48.532;8.722;2023-08-21T02:02:53;7.97;;;7.28;;
26588;SDS011;14235;48.532;8.722;2023-08-21T02:05:18;7.90;;;6.82;;
26588;SDS011;14235;48.532;8.722;2023-08-21T02:07:44;9.52;;;7.22;;
26588;SDS011;14235;48.532;8.722;2023-08-21T02:10:10;7.63;;;6.95;;
26588;SDS011;14235;48.532;8.722;2023-08-21T02:12:36;7.82;;;7.18;;
26588;SDS011;14235;48.532;8.722;2023-08-21T02:15:02;8.82;;;7.32;;
26588;SDS011;14235;48.532;8.722;2023-08-21T02:17:28;7.75;;;7.03;;
26588;SDS011;14235;48.532;8.722;2023-08-21T02:19:55;10.25;;;7.80;;
26588;SDS011;14235;48.532;8.722;2023-08-21T02:22:20;8.32;;;7.50;;
26588;SDS011;14235;48.532;8.722;2023-08-21T02:24:46;8.02;;;7.20;;
26588;SDS011;14235;48.532;8.722;2023-08-21T02:27:12;8.77;;;7.03;;
26588;SDS011;14235;48.532;8.722;2023-08-21T02:29:37;7.78;;;7.07;;
26588;SDS011;14235;48.532;8.722;2023-08-21T02:32:03;7.60;;;6.88;;
26588;SDS011;14235;48.532;8.722;2023-08-21T02:34:29;8.20;;;7.43;;
26588;SDS011;14235;48.532;8.722;2023-08-21T02:36:55;7.57;;;6.88;;
26588;SDS011;14235;48.532;8.722;2023-08-21T02:39:21;7.85;;;7.15;;
26588;SDS011;14235;48.532;8.722;2023-08-21T02:41:46;7.68;;;6.97;;
26588;SDS011;14235;48.532;8.722;2023-08-21T02:44:12;11.27;;;7.70;;
26588;SDS011;14235;48.532;8.722;2023-08-21T02:46:38;9.45;;;7.07;;
26588;SDS011;14235;48.532;8.722;2023-08-21T02:49:03;7.45;;;6.75;;
26588;SDS011;14235;48.532;8.722;2023-08-21T02:51:29;7.75;;;7.05;;
26588;SDS011;14235;48.532;8.722;2023-08-21T02:53:55;8.02;;;7.38;;
26588;SDS011;14235;48.532;8.722;2023-08-21T02:56:21;9.00;;;7.20;;
26588;SDS011;14235;48.532;8.722;2023-08-21T02:58:47;7.97;;;7.15;;
26588;SDS011;14235;48.532;8.722;2023-08-21T03:01:13;8.55;;;7.47;;
26588;SDS011;14235;48.532;8.722;2023-08-21T03:03:39;9.45;;;7.95;;
26588;SDS011;14235;48.532;8.722;2023-08-21T03:06:04;7.78;;;6.97;;
26588;SDS011;14235;48.532;8.722;2023-08-21T03:08:30;7.55;;;6.80;;
26588;SDS011;14235;48.532;8.722;2023-08-21T03:10:56;8.80;;;6.40;;
26588;SDS011;14235;48.532;8.722;2023-08-21T03:13:22;8.07;;;6.55;;
26588;SDS011;14235;48.532;8.722;2023-08-21T03:15:48;7.85;;;7.22;;
26588;SDS011;14235;48.532;8.722;2023-08-21T03:18:14;7.97;;;7.15;;
26588;SDS011;14235;48.532;8.722;2023-08-21T03:20:48;7.88;;;7.00;;
26588;SDS011;14235;48.532;8.722;2023-08-21T03:23:14;11.30;;;7.20;;
26588;SDS011;14235;48.532;8.722;2023-08-21T03:25:40;7.88;;;7.07;;
26588;SDS011;14235;48.532;8.722;2023-08-21T03:28:05;7.47;;;6.68;;
26588;SDS011;14235;48.532;8.722;2023-08-21T03:30:31;7.75;;;6.93;;
26588;SDS011;14235;48.532;8.722;2023-08-21T03:32:57;7.60;;;6.85;;
26588;SDS011;14235;48.532;8.722;2023-08-21T03:35:23;9.02;;;7.55;;
26588;SDS011;14235;48.532;8.722;2023-08-21T03:37:49;7.78;;;7.03;;
26588;SDS011;14235;48.532;8.722;2023-08-21T03:40:15;7.97;;;7.28;;
26588;SDS011;14235;48.532;8.722;2023-08-21T03:42:41;8.23;;;6.65;;
26588;SDS011;14235;48.532;8.722;2023-08-21T03:45:08;7.43;;;6.80;;
26588;SDS011;14235;48.532;8.722;2023-08-21T03:47:34;7.80;;;7.03;;
26588;SDS011;14235;48.532;8.722;2023-08-21T03:49:59;12.35;;;7.65;;
26588;SDS011;14235;48.532;8.722;2023-08-21T03:52:25;7.60;;;6.90;;
26588;SDS011;14235;48.532;8.722;2023-08-21T03:54:51;7.70;;;6.97;;
26588;SDS011;14235;48.532;8.722;2023-08-21T03:57:16;7.55;;;6.75;;
26588;SDS011;14235;48.532;8.722;2023-08-21T03:59:42;7.78;;;7.07;;
26588;SDS011;14235;48.532;8.722;2023-08-21T04:02:08;7.47;;;6.60;;
26588;SDS011;14235;48.532;8.722;2023-08-21T04:04:33;7.07;;;6.45;;
26588;SDS011;14235;48.532;8.722;2023-08-21T04:06:59;7.65;;;6.95;;
26588;SDS011;14235;48.532;8.722;2023-08-21T04:09:25;7.28;;;6.57;;
26588;SDS011;14235;48.532;8.722;2023-08-21T04:11:51;11.32;;;6.90;;
26588;SDS011;14235;48.532;8.722;2023-08-21T04:14:16;10.23;;;7.10;;
26588;SDS011;14235;48.532;8.722;2023-08-21T04:16:42;7.63;;;6.80;;
26588;SDS011;14235;48.532;8.722;2023-08-21T04:19:08;7.97;;;6.63;;
26588;SDS011;14235;48.532;8.722;2023-08-21T04:21:33;7.65;;;6.80;;
26588;SDS011;14235;48.532;8.722;2023-08-21T04:23:59;7.40;;;6.60;;
26588;SDS011;14235;48.532;8.722;2023-08-21T04:26:25;7.38;;;6.35;;
26588;SDS011;14235;48.532;8.722;2023-08-21T04:28:51;7.32;;;6.63;;
26588;SDS011;14235;48.532;8.722;2023-08-21T04:31:16;8.30;;;6.50;;
26588;SDS011;14235;48.532;8.722;2023-08-21T04:33:42;7.18;;;6.57;;
26588;SDS011;14235;48.532;8.722;2023-08-21T04:36:13;8.00;;;7.18;;
26588;SDS011;14235;48.532;8.722;2023-08-21T04:38:39;7.95;;;7.03;;
26588;SDS011;14235;48.532;8.722;2023-08-21T04:41:06;7.15;;;6.45;;
26588;SDS011;14235;48.532;8.722;2023-08-21T04:43:32;7.53;;;6.93;;
26588;SDS011;14235;48.532;8.722;2023-08-21T04:45:58;8.02;;;6.78;;
26588;SDS011;14235;48.532;8.722;2023-08-21T04:48:24;8.13;;;6.57;;
26588;SDS011;14235;48.532;8.722;2023-08-21T04:50:49;9.57;;;7.13;;
26588;SDS011;14235;48.532;8.722;2023-08-21T04:53:15;8.55;;;6.97;;
26588;SDS011;14235;48.532;8.722;2023-08-21T04:55:41;7.40;;;6.68;;
26588;SDS011;14235;48.532;8.722;2023-08-21T04:58:08;7.55;;;6.85;;
26588;SDS011;14235;48.532;8.722;2023-08-21T05:00:34;7.18;;;6.47;;
26588;SDS011;14235;48.532;8.722;2023-08-21T05:03:00;6.65;;;5.97;;
26588;SDS011;14235;48.532;8.722;2023-08-21T05:05:26;8.23;;;7.15;;
26588;SDS011;14235;48.532;8.722;2023-08-21T05:07:52;11.90;;;6.82;;
26588;SDS011;14235;48.532;8.722;2023-08-21T05:10:18;7.32;;;6.63;;
26588;SDS011;14235;48.532;8.722;2023-08-21T05:12:44;7.18;;;6.57;;
26588;SDS011;14235;48.532;8.722;2023-08-21T05:15:10;8.15;;;6.88;;
26588;SDS011;14235;48.532;8.722;2023-08-21T05:17:36;7.00;;;6.40;;
26588;SDS011;14235;48.532;8.722;2023-08-21T05:20:02;7.95;;;6.82;;
26588;SDS011;14235;48.532;8.722;2023-08-21T05:22:28;7.55;;;6.82;;
26588;SDS011;14235;48.532;8.722;2023-08-21T05:24:54;7.97;;;7.18;;
26588;SDS011;14235;48.532;8.722;2023-08-21T05:27:19;7.03;;;6.45;;
26588;SDS011;14235;48.532;8.722;2023-08-21T05:29:45;7.38;;;6.78;;
26588;SDS011;14235;48.532;8.722;2023-08-21T05:32:11;8.05;;;7.25;;
26588;SDS011;14235;48.532;8.722;2023-08-21T05:34:37;8.05;;;6.80;;
26588;SDS011;14235;48.532;8.722;2023-08-21T05:37:03;10.00;;;6.65;;
26588;SDS011;14235;48.532;8.722;2023-08-21T05:39:28;11.15;;;7.03;;
26588;SDS011;14235;48.532;8.722;2023-08-21T05:41:54;7.63;;;7.03;;
26588;SDS011;14235;48.532;8.722;2023-08-21T05:44:21;7.65;;;6.63;;
26588;SDS011;14235;48.532;8.722;2023-08-21T05:46:46;6.88;;;6.38;;
26588;SDS011;14235;48.532;8.722;2023-08-21T05:49:12;6.95;;;6.40;;
26588;SDS011;14235;48.532;8.722;2023-08-21T05:51:38;9.05;;;6.80;;
26588;SDS011;14235;48.532;8.722;2023-08-21T05:54:05;6.97;;;6.47;;
26588;SDS011;14235;48.532;8.722;2023-08-21T05:56:31;8.05;;;6.78;;
26588;SDS011;14235;48.532;8.722;2023-08-21T05:58:57;7.22;;;6.63;;
26588;SDS011;14235;48.532;8.722;2023-08-21T06:01:23;9.55;;;7.28;;
26588;SDS011;14235;48.532;8.722;2023-08-21T06:03:49;8.90;;;6.70;;
26588;SDS011;14235;48.532;8.722;2023-08-21T06:06:15;7.43;;;6.43;;
26588;SDS011;14235;48.532;8.722;2023-08-21T06:08:41;7.82;;;7.20;;
26588;SDS011;14235;48.532;8.722;2023-08-21T06:11:07;7.40;;;6.68;;
26588;SDS011;14235;48.532;8.722;2023-08-21T06:13:33;7.15;;;6.45;;
26588;SDS011;14235;48.532;8.722;2023-08-21T06:15:59;7.20;;;6.57;;
26588;SDS011;14235;48.532;8.722;2023-08-21T06:18:25;7.63;;;7.00;;
26588;SDS011;14235;48.532;8.722;2023-08-21T06:20:51;7.18;;;6.68;;
26588;SDS011;14235;48.532;8.722;2023-08-21T06:23:19;8.15;;;6.95;;
26588;SDS011;14235;48.532;8.722;2023-08-21T06:25:47;7.35;;;6.65;;
26588;SDS011;14235;48.532;8.722;2023-08-21T06:28:13;8.18;;;7.30;;
26588;SDS011;14235;48.532;8.722;2023-08-21T06:30:39;7.95;;;7.25;;
26588;SDS011;14235;48.532;8.722;2023-08-21T06:33:05;9.27;;;6.50;;
26588;SDS011;14235;48.532;8.722;2023-08-21T06:35:31;7.68;;;6.90;;
26588;SDS011;14235;48.532;8.722;2023-08-21T06:37:57;7.82;;;7.13;;
26588;SDS011;14235;48.532;8.722;2023-08-21T06:40:23;9.82;;;6.95;;
26588;SDS011;14235;48.532;8.722;2023-08-21T06:42:49;8.20;;;7.40;;
26588;SDS011;14235;48.532;8.722;2023-08-21T06:45:16;8.25;;;7.47;;
26588;SDS011;14235;48.532;8.722;2023-08-21T06:47:42;7.90;;;7.13;;
26588;SDS011;14235;48.532;8.722;2023-08-21T06:50:09;8.50;;;7.68;;
26588;SDS011;14235;48.532;8.722;2023-08-21T06:52:35;7.70;;;6.90;;
26588;SDS011;14235;48.532;8.722;2023-08-21T06:55:01;7.82;;;6.70;;
26588;SDS011;14235;48.532;8.722;2023-08-21T06:57:27;7.60;;;6.78;;
26588;SDS011;14235;48.532;8.722;2023-08-21T06:59:53;7.95;;;6.85;;
26588;SDS011;14235;48.532;8.722;2023-08-21T07:02:19;7.68;;;7.03;;
26588;SDS011;14235;48.532;8.722;2023-08-21T07:04:45;7.80;;;7.00;;
26588;SDS011;14235;48.532;8.722;2023-08-21T07:07:11;7.90;;;7.20;;
26588;SDS011;14235;48.532;8.722;2023-08-21T07:09:38;9.90;;;7.47;;
26588;SDS011;14235;48.532;8.722;2023-08-21T07:12:03;7.65;;;7.05;;
26588;SDS011;14235;48.532;8.722;2023-08-21T07:14:29;7.82;;;7.13;;
26588;SDS011;14235;48.532;8.722;2023-08-21T07:16:58;10.25;;;7.50;;
26588;SDS011;14235;48.532;8.722;2023-08-21T07:19:23;8.52;;;7.55;;
26588;SDS011;14235;48.532;8.722;2023-08-21T07:21:49;8.30;;;7.28;;
26588;SDS011;14235;48.532;8.722;2023-08-21T07:24:15;8.73;;;8.02;;
26588;SDS011;14235;48.532;8.722;2023-08-21T07:26:41;8.52;;;7.70;;
26588;SDS011;14235;48.532;8.722;2023-08-21T07:29:07;9.23;;;8.07;;
26588;SDS011;14235;48.532;8.722;2023-08-21T07:31:33;8.25;;;7.45;;
26588;SDS011;14235;48.532;8.722;2023-08-21T07:33:59;8.50;;;7.55;;
26588;SDS011;14235;48.532;8.722;2023-08-21T07:36:25;8.43;;;7.57;;
26588;SDS011;14235;48.532;8.722;2023-08-21T07:38:51;9.35;;;7.80;;
26588;SDS011;14235;48.532;8.722;2023-08-21T07:41:17;8.25;;;7.45;;
26588;SDS011;14235;48.532;8.722;2023-08-21T07:43:43;8.38;;;7.68;;
26588;SDS011;14235;48.532;8.722;2023-08-21T07:46:10;8.45;;;7.68;;
26588;SDS011;14235;48.532;8.722;2023-08-21T07:48:38;8.50;;;7.43;;
26588;SDS011;14235;48.532;8.722;2023-08-21T07:51:05;9.02;;;8.05;;
26588;SDS011;14235;48.532;8.722;2023-08-21T07:53:31;8.60;;;7.63;;
26588;SDS011;14235;48.532;8.722;2023-08-21T07:55:57;8.55;;;7.72;;
26588;SDS011;14235;48.532;8.722;2023-08-21T07:58:23;8.57;;;7.57;;
26588;SDS011;14235;48.532;8.722;2023-08-21T08:00:49;10.77;;;8.25;;
26588;SDS011;14235;48.532;8.722;2023-08-21T08:03:16;8.82;;;7.93;;
26588;SDS011;14235;48.532;8.722;2023-08-21T08:05:42;9.65;;;7.90;;
26588;SDS011;14235;48.532;8.722;2023-08-21T08:08:08;9.32;;;7.60;;
26588;SDS011;14235;48.532;8.722;2023-08-21T08:10:40;8.02;;;7.15;;
26588;SDS011;14235;48.532;8.722;2023-08-21T08:13:06;8.48;;;7.22;;
26588;SDS011;14235;48.532;8.722;2023-08-21T08:15:33;12.68;;;11.00;;
26588;SDS011;14235;48.532;8.722;2023-08-21T08:18:00;9.18;;;8.38;;
26588;SDS011;14235;48.532;8.722;2023-08-21T08:20:26;13.38;;;8.35;;
26588;SDS011;14235;48.532;8.722;2023-08-21T08:22:52;8.45;;;7.68;;
26588;SDS011;14235;48.532;8.722;2023-08-21T08:25:18;10.50;;;8.57;;
26588;SDS011;14235;48.532;8.722;2023-08-21T08:27:44;11.20;;;8.82;;
26588;SDS011;14235;48.532;8.722;2023-08-21T08:30:10;9.30;;;8.30;;
26588;SDS011;14235;48.532;8.722;2023-08-21T08:32:36;8.77;;;7.47;;
26588;SDS011;14235;48.532;8.722;2023-08-21T08:35:02;9.63;;;7.72;;
26588;SDS011;14235;48.532;8.722;2023-08-21T08:37:29;11.95;;;8.40;;
26588;SDS011;14235;48.532;8.722;2023-08-21T08:39:55;11.27;;;8.25;;
26588;SDS011;14235;48.532;8.722;2023-08-21T08:42:21;9.32;;;7.68;;
26588;SDS011;14235;48.532;8.722;2023-08-21T08:44:47;10.52;;;8.32;;
26588;SDS011;14235;48.532;8.722;2023-08-21T08:47:15;9.40;;;8.27;;
26588;SDS011;14235;48.532;8.722;2023-08-21T08:49:45;11.38;;;8.20;;
26588;SDS011;14235;48.532;8.722;2023-08-21T08:52:11;10.82;;;8.25;;
26588;SDS011;14235;48.532;8.722;2023-08-21T08:54:42;8.13;;;7.35;;
26588;SDS011;14235;48.532;8.722;2023-08-21T08:57:08;11.07;;;7.78;;
26588;SDS011;14235;48.532;8.722;2023-08-21T08:59:34;9.25;;;8.05;;
26588;SDS011;14235;48.532;8.722;2023-08-21T09:02:00;13.70;;;7.88;;
26588;SDS011;14235;48.532;8.722;2023-08-21T09:04:25;11.65;;;7.68;;
26588;SDS011;14235;48.532;8.722;2023-08-21T09:06:52;8.70;;;7.75;;
26588;SDS011;14235;48.532;8.722;2023-08-21T09:09:18;8.88;;;7.85;;
26588;SDS011;14235;48.532;8.722;2023-08-21T09:11:44;11.52;;;7.68;;
26588;SDS011;14235;48.532;8.722;2023-08-21T09:14:11;8.45;;;7.38;;
26588;SDS011;14235;48.532;8.722;2023-08-21T09:16:37;9.63;;;7.35;;
26588;SDS011;14235;48.532;8.722;2023-08-21T09:19:03;8.23;;;7.43;;
26588;SDS011;14235;48.532;8.722;2023-08-21T09:21:30;10.05;;;6.78;;
26588;SDS011;14235;48.532;8.722;2023-08-21T09:24:00;9.98;;;7.60;;
26588;SDS011;14235;48.532;8.722;2023-08-21T09:26:29;9.75;;;8.05;;
26588;SDS011;14235;48.532;8.722;2023-08-21T09:29:02;11.55;;;7.55;;
26588;SDS011;14235;48.532;8.722;2023-08-21T09:31:32;8.20;;;7.15;;
26588;SDS011;14235;48.532;8.722;2023-08-21T09:33:59;13.70;;;7.32;;
26588;SDS011;14235;48.532;8.722;2023-08-21T09:36:26;8.15;;;6.38;;
26588;SDS011;14235;48.532;8.722;2023-08-21T09:38:52;7.97;;;7.05;;
26588;SDS011;14235;48.532;8.722;2023-08-21T09:41:20;10.52;;;6.82;;
26588;SDS011;14235;48.532;8.722;2023-08-21T09:43:46;8.93;;;7.53;;
26588;SDS011;14235;48.532;8.722;2023-08-21T09:46:16;7.78;;;6.88;;
26588;SDS011;14235;48.532;8.722;2023-08-21T09:48:43;8.88;;;6.60;;
26588;SDS011;14235;48.532;8.722;2023-08-21T09:51:10;9.43;;;6.78;;
26588;SDS011;14235;48.532;8.722;2023-08-21T09:53:37;9.88;;;6.85;;
26588;SDS011;14235;48.532;8.722;2023-08-21T09:56:04;8.70;;;6.72;;
26588;SDS011;14235;48.532;8.722;2023-08-21T09:58:35;7.57;;;6.88;;
26588;SDS011;14235;48.532;8.722;2023-08-21T10:01:01;10.75;;;6.28;;
26588;SDS011;14235;48.532;8.722;2023-08-21T10:03:38;7.07;;;6.20;;
26588;SDS011;14235;48.532;8.722;2023-08-21T10:06:05;6.93;;;6.20;;
26588;SDS011;14235;48.532;8.722;2023-08-21T10:08:32;9.88;;;6.40;;
26588;SDS011;14235;48.532;8.722;2023-08-21T10:11:04;10.60;;;6.40;;
26588;SDS011;14235;48.532;8.722;2023-08-21T10:13:32;10.13;;;6.53;;
26588;SDS011;14235;48.532;8.722;2023-08-21T10:15:59;7.78;;;6.97;;
26588;SDS011;14235;48.532;8.722;2023-08-21T10:18:32;8.95;;;6.50;;
26588;SDS011;14235;48.532;8.722;2023-08-21T10:21:16;8.57;;;6.88;;
26588;SDS011;14235;48.532;8.722;2023-08-21T10:23:50;7.07;;;6.47;;
26588;SDS011;14235;48.532;8.722;2023-08-21T10:26:19;9.18;;;6.70;;
26588;SDS011;14235;48.532;8.722;2023-08-21T10:31:35;9.65;;;7.18;;
26588;SDS011;14235;48.532;8.722;2023-08-21T10:34:04;11.75;;;7.03;;
26588;SDS011;14235;48.532;8.722;2023-08-21T10:37:02;9.25;;;6.63;;
26588;SDS011;14235;48.532;8.722;2023-08-21T10:39:25;7.85;;;6.70;;
26588;SDS011;14235;48.532;8.722;2023-08-21T10:42:05;8.07;;;6.65;;
26588;SDS011;14235;48.532;8.722;2023-08-21T10:47:13;10.50;;;6.80;;
26588;SDS011;14235;48.532;8.722;2023-08-21T10:49:40;7.90;;;7.07;;
26588;SDS011;14235;48.532;8.722;2023-08-21T10:52:07;10.23;;;6.93;;
26588;SDS011;14235;48.532;8.722;2023-08-21T10:54:50;8.95;;;6.72;;
26588;SDS011;14235;48.532;8.722;2023-08-21T10:57:19;7.70;;;7.00;;
26588;SDS011;14235;48.532;8.722;2023-08-21T10:59:49;9.57;;;6.80;;
26588;SDS011;14235;48.532;8.722;2023-08-21T11:02:22;9.07;;;6.93;;
26588;SDS011;14235;48.532;8.722;2023-08-21T11:04:49;8.75;;;6.50;;
26588;SDS011;14235;48.532;8.722;2023-08-21T11:07:18;7.40;;;6.60;;
26588;SDS011;14235;48.532;8.722;2023-08-21T11:09:44;7.47;;;6.35;;
26588;SDS011;14235;48.532;8.722;2023-08-21T11:12:11;8.18;;;6.85;;
26588;SDS011;14235;48.532;8.722;2023-08-21T11:14:41;9.43;;;6.70;;
26588;SDS011;14235;48.532;8.722;2023-08-21T11:17:08;7.38;;;6.18;;
26588;SDS011;14235;48.532;8.722;2023-08-21T11:19:34;7.38;;;6.60;;
26588;SDS011;14235;48.532;8.722;2023-08-21T11:22:00;7.57;;;6.95;;
26588;SDS011;14235;48.532;8.722;2023-08-21T11:27:03;10.02;;;6.10;;
26588;SDS011;14235;48.532;8.722;2023-08-21T11:29:32;7.10;;;6.40;;
26588;SDS011;14235;48.532;8.722;2023-08-21T11:32:02;7.97;;;6.07;;
26588;SDS011;14235;48.532;8.722;2023-08-21T11:34:28;7.75;;;6.93;;
26588;SDS011;14235;48.532;8.722;2023-08-21T11:36:54;10.02;;;6.45;;
26588;SDS011;14235;48.532;8.722;2023-08-21T11:39:20;7.80;;;6.53;;
26588;SDS011;14235;48.532;8.722;2023-08-21T11:41:56;8.57;;;6.07;;
26588;SDS011;14235;48.532;8.722;2023-08-21T11:44:23;8.43;;;6.43;;
26588;SDS011;14235;48.532;8.722;2023-08-21T11:46:51;7.72;;;6.00;;
26588;SDS011;14235;48.532;8.722;2023-08-21T11:49:20;6.68;;;6.20;;
26588;SDS011;14235;48.532;8.722;2023-08-21T11:51:47;6.78;;;6.18;;
26588;SDS011;14235;48.532;8.722;2023-08-21T11:54:13;7.40;;;6.60;;
26588;SDS011;14235;48.532;8.722;2023-08-21T11:56:39;6.88;;;6.28;;
26588;SDS011;14235;48.532;8.722;2023-08-21T11:59:07;6.97;;;6.38;;
26588;SDS011;14235;48.532;8.722;2023-08-21T12:01:33;9.18;;;6.80;;
26588;SDS011;14235;48.532;8.722;2023-08-21T12:03:59;8.02;;;6.95;;
26588;SDS011;14235;48.532;8.722;2023-08-21T12:06:25;9.18;;;6.75;;
26588;SDS011;14235;48.532;8.722;2023-08-21T12:08:52;9.43;;;6.55;;
26588;SDS011;14235;48.532;8.722;2023-08-21T12:11:17;7.05;;;6.38;;
26588;SDS011;14235;48.532;8.722;2023-08-21T12:13:43;8.02;;;6.35;;
26588;SDS011;14235;48.532;8.722;2023-08-21T12:16:09;8.27;;;6.93;;
26588;SDS011;14235;48.532;8.722;2023-08-21T12:18:35;7.57;;;6.80;;
26588;SDS011;14235;48.532;8.722;2023-08-21T12:21:14;7.22;;;6.53;;
26588;SDS011;14235;48.532;8.722;2023-08-21T12:23:39;9.50;;;6.85;;
26588;SDS011;14235;48.532;8.722;2023-08-21T12:26:05;7.63;;;6.78;;
26588;SDS011;14235;48.532;8.722;2023-08-21T12:28:31;7.70;;;6.50;;
26588;SDS011;14235;48.532;8.722;2023-08-21T12:30:57;7.75;;;6.53;;
26588;SDS011;14235;48.532;8.722;2023-08-21T12:33:22;6.95;;;6.28;;
26588;SDS011;14235;48.532;8.722;2023-08-21T12:35:50;10.30;;;6.35;;
26588;SDS011;14235;48.532;8.722;2023-08-21T12:38:16;8.85;;;7.18;;
26588;SDS011;14235;48.532;8.722;2023-08-21T12:40:42;7.68;;;6.50;;
26588;SDS011;14235;48.532;8.722;2023-08-21T12:43:07;7.72;;;6.47;;
26588;SDS011;14235;48.532;8.722;2023-08-21T12:45:35;7.43;;;6.30;;
26588;SDS011;14235;48.532;8.722;2023-08-21T12:48:01;9.45;;;6.18;;
26588;SDS011;14235;48.532;8.722;2023-08-21T12:50:28;8.20;;;6.75;;
26588;SDS011;14235;48.532;8.722;2023-08-21T12:52:54;12.82;;;7.07;;
26588;SDS011;14235;48.532;8.722;2023-08-21T12:55:20;7.70;;;6.35;;
26588;SDS011;14235;48.532;8.722;2023-08-21T12:57:45;8.40;;;6.22;;
26588;SDS011;14235;48.532;8.722;2023-08-21T13:00:11;10.48;;;6.10;;
26588;SDS011;14235;48.532;8.722;2023-08-21T13:02:37;8.90;;;6.30;;
26588;SDS011;14235;48.532;8.722;2023-08-21T13:05:03;6.82;;;6.05;;
26588;SDS011;14235;48.532;8.722;2023-08-21T13:07:31;8.18;;;6.35;;
26588;SDS011;14235;48.532;8.722;2023-08-21T13:09:57;8.23;;;6.70;;
26588;SDS011;14235;48.532;8.722;2023-08-21T13:12:24;8.27;;;6.35;;
26588;SDS011;14235;48.532;8.722;2023-08-21T13:14:50;7.65;;;6.50;;
26588;SDS011;14235;48.532;8.722;2023-08-21T13:17:16;7.60;;;6.90;;
26588;SDS011;14235;48.532;8.722;2023-08-21T13:19:42;7.53;;;6.35;;
26588;SDS011;14235;48.532;8.722;2023-08-21T13:22:08;7.43;;;6.75;;
26588;SDS011;14235;48.532;8.722;2023-08-21T13:24:35;6.85;;;5.97;;
26588;SDS011;14235;48.532;8.722;2023-08-21T13:27:01;8.95;;;6.30;;
26588;SDS011;14235;48.532;8.722;2023-08-21T13:29:27;7.78;;;6.28;;
26588;SDS011;14235;48.532;8.722;2023-08-21T13:31:54;30.83;;;9.40;;
26588;SDS011;14235;48.532;8.722;2023-08-21T13:34:20;10.63;;;6.40;;
26588;SDS011;14235;48.532;8.722;2023-08-21T13:36:45;7.22;;;6.35;;
26588;SDS011;14235;48.532;8.722;2023-08-21T13:39:11;7.25;;;6.32;;
26588;SDS011;14235;48.532;8.722;2023-08-21T13:41:40;9.35;;;6.00;;
26588;SDS011;14235;48.532;8.722;2023-08-21T13:44:06;7.57;;;6.60;;
26588;SDS011;14235;48.532;8.722;2023-08-21T13:46:33;9.68;;;6.63;;
26588;SDS011;14235;48.532;8.722;2023-08-21T13:48:59;7.28;;;6.57;;
26588;SDS011;14235;48.532;8.722;2023-08-21T13:51:25;10.48;;;6.82;;
26588;SDS011;14235;48.532;8.722;2023-08-21T13:53:51;6.90;;;5.95;;
26588;SDS011;14235;48.532;8.722;2023-08-21T13:56:17;6.90;;;6.20;;
26588;SDS011;14235;48.532;8.722;2023-08-21T13:58:44;8.90;;;7.00;;
26588;SDS011;14235;48.532;8.722;2023-08-21T14:01:10;9.93;;;6.43;;
26588;SDS011;14235;48.532;8.722;2023-08-21T14:03:36;8.85;;;6.68;;
26588;SDS011;14235;48.532;8.722;2023-08-21T14:06:02;7.07;;;6.43;;
26588;SDS011;14235;48.532;8.722;2023-08-21T14:08:28;8.85;;;6.40;;
26588;SDS011;14235;48.532;8.722;2023-08-21T14:10:55;7.00;;;6.03;;
26588;SDS011;14235;48.532;8.722;2023-08-21T14:13:22;6.43;;;5.45;;
26588;SDS011;14235;48.532;8.722;2023-08-21T14:15:48;7.82;;;5.70;;
26588;SDS011;14235;48.532;8.722;2023-08-21T14:18:13;6.40;;;5.68;;
26588;SDS011;14235;48.532;8.722;2023-08-21T14:20:39;6.63;;;6.13;;
26588;SDS011;14235;48.532;8.722;2023-08-21T14:23:05;6.85;;;5.85;;
26588;SDS011;14235;48.532;8.722;2023-08-21T14:25:31;6.78;;;6.07;;
26588;SDS011;14235;48.532;8.722;2023-08-21T14:27:59;6.95;;;5.88;;
26588;SDS011;14235;48.532;8.722;2023-08-21T14:30:25;9.25;;;5.95;;
26588;SDS011;14235;48.532;8.722;2023-08-21T14:32:51;7.75;;;6.13;;
26588;SDS011;14235;48.532;8.722;2023-08-21T14:35:17;7.97;;;5.85;;
26588;SDS011;14235;48.532;8.722;2023-08-21T14:37:42;7.38;;;6.05;;
26588;SDS011;14235;48.532;8.722;2023-08-21T14:40:08;8.68;;;6.20;;
26588;SDS011;14235;48.532;8.722;2023-08-21T14:42:34;7.47;;;6.30;;
26588;SDS011;14235;48.532;8.722;2023-08-21T14:45:01;7.60;;;6.32;;
26588;SDS011;14235;48.532;8.722;2023-08-21T14:47:28;6.05;;;5.45;;
26588;SDS011;14235;48.532;8.722;2023-08-21T14:49:54;9.13;;;6.28;;
26588;SDS011;14235;48.532;8.722;2023-08-21T14:52:20;8.60;;;6.15;;
26588;SDS011;14235;48.532;8.722;2023-08-21T14:54:48;10.00;;;6.03;;
26588;SDS011;14235;48.532;8.722;2023-08-21T14:57:14;7.05;;;5.93;;